Time;durP1;ratioP1;P1;durP2;ratioP2;P2;SDS_P1;SDS_P2;PMS_P1;PMS_P2;Temp;Humidity;BMP_temperature;BMP_pressure;BME280_temperature;BME280_humidity;BME280_pressure;Samples;Min_cycle;Max_cycle;Signal;HPM_P1;HPM_P2
2021/03/20 00:00:23;;;;;;;10.47;5.27;;;;;;;;;;6149232;23;20172;-88
2021/03/20 00:03:27;;;;;;;9.37;4.77;;;;;;;;;;6151389;23;20233;-89
2021/03/20 00:06:35;;;;;;;10.27;5.13;;;;;;;;;;6152851;23;20221;-88
2021/03/20 00:09:40;;;;;;;9.53;5.03;;;;;;;;;;6147794;23;20241;-89
2021/03/20 00:12:48;;;;;;;9.80;5.10;;;;;;;;;;6150265;23;20156;-89
2021/03/20 00:15:56;;;;;;;8.00;4.60;;;;;;;;;;6149560;23;20252;-88
2021/03/20 00:19:01;;;;;;;10.50;4.63;;;;;;;;;;6149639;23;20207;-91
2021/03/20 00:22:06;;;;;;;6.30;3.63;;;;;;;;;;6150061;23;20165;-88
2021/03/20 00:25:11;;;;;;;9.83;4.20;;;;;;;;;;6147913;23;20211;-89
2021/03/20 00:28:21;;;;;;;7.40;3.90;;;;;;;;;;6148123;23;20172;-87
2021/03/20 00:31:26;;;;;;;5.27;3.50;;;;;;;;;;6152711;23;20296;-88
2021/03/20 00:34:33;;;;;;;5.70;3.17;;;;;;;;;;6152406;23;20212;-87
2021/03/20 00:37:37;;;;;;;5.17;3.17;;;;;;;;;;6153630;23;20185;-88
2021/03/20 00:40:42;;;;;;;12.73;3.40;;;;;;;;;;6150980;23;20172;-90
2021/03/20 00:43:47;;;;;;;7.00;2.80;;;;;;;;;;6150384;23;20196;-87
2021/03/20 00:46:52;;;;;;;5.83;2.80;;;;;;;;;;6150536;23;20173;-87
2021/03/20 00:49:56;;;;;;;4.80;2.50;;;;;;;;;;6149480;23;20213;-87
2021/03/20 00:53:01;;;;;;;4.80;2.90;;;;;;;;;;6150087;23;20176;-88
2021/03/20 00:56:06;;;;;;;7.07;2.30;;;;;;;;;;6149615;23;20171;-86
2021/03/20 00:59:11;;;;;;;3.60;2.70;;;;;;;;;;6149941;23;20173;-87
2021/03/20 01:02:16;;;;;;;3.63;2.27;;;;;;;;;;6148059;23;20248;-88
2021/03/20 01:05:22;;;;;;;4.10;2.50;;;;;;;;;;6166909;23;20216;-89
2021/03/20 01:08:26;;;;;;;4.17;2.70;;;;;;;;;;6148212;23;20176;-87
2021/03/20 01:11:31;;;;;;;4.73;2.60;;;;;;;;;;6148701;23;20264;-91
2021/03/20 01:14:36;;;;;;;4.67;2.67;;;;;;;;;;6150186;23;20216;-89
2021/03/20 01:17:41;;;;;;;4.10;2.50;;;;;;;;;;6148424;23;20176;-88
2021/03/20 01:20:46;;;;;;;6.00;2.80;;;;;;;;;;6148821;23;20620;-89
2021/03/20 01:23:51;;;;;;;4.33;2.60;;;;;;;;;;6147776;23;20197;-87
2021/03/20 01:26:55;;;;;;;4.83;2.70;;;;;;;;;;6148979;23;20172;-87
2021/03/20 01:30:01;;;;;;;3.30;2.10;;;;;;;;;;6148972;23;20671;-87
2021/03/20 01:33:06;;;;;;;6.40;2.73;;;;;;;;;;6148766;23;20176;-90
2021/03/20 01:36:11;;;;;;;4.37;2.43;;;;;;;;;;6167289;23;20245;-88
2021/03/20 01:39:16;;;;;;;4.13;2.60;;;;;;;;;;6149637;23;20176;-88
2021/03/20 01:42:20;;;;;;;4.17;2.63;;;;;;;;;;6148928;23;20184;-88
2021/03/20 01:45:28;;;;;;;4.20;2.50;;;;;;;;;;6149266;23;20195;-87
2021/03/20 01:48:35;;;;;;;4.20;2.70;;;;;;;;;;6149320;23;20196;-87
2021/03/20 01:51:40;;;;;;;4.63;2.83;;;;;;;;;;6148772;23;20250;-90
2021/03/20 01:54:48;;;;;;;3.63;2.53;;;;;;;;;;6149032;23;20172;-89
2021/03/20 01:57:55;;;;;;;5.73;3.07;;;;;;;;;;6149551;23;20173;-89
2021/03/20 02:01:04;;;;;;;4.83;2.70;;;;;;;;;;6150586;23;20656;-88
2021/03/20 02:04:09;;;;;;;4.93;2.57;;;;;;;;;;6148530;23;20196;-91
2021/03/20 02:07:13;;;;;;;4.90;2.80;;;;;;;;;;6148298;23;20184;-91
2021/03/20 02:10:18;;;;;;;5.00;2.90;;;;;;;;;;6147384;23;20195;-87
2021/03/20 02:13:24;;;;;;;4.77;2.70;;;;;;;;;;6147184;23;20164;-90
2021/03/20 02:16:35;;;;;;;10.43;2.93;;;;;;;;;;6148001;23;20253;-91
2021/03/20 02:19:58;;;;;;;6.13;2.70;;;;;;;;;;6147771;23;20173;-90
2021/03/20 02:23:16;;;;;;;6.70;2.53;;;;;;;;;;6148260;23;20208;-91
2021/03/20 02:26:39;;;;;;;4.93;2.63;;;;;;;;;;6146026;23;20189;-90
2021/03/20 02:30:12;;;;;;;6.33;2.20;;;;;;;;;;6146881;23;20192;-91
2021/03/20 02:33:27;;;;;;;5.17;2.20;;;;;;;;;;6031106;23;20288;-90
2021/03/20 02:36:36;;;;;;;3.23;1.90;;;;;;;;;;6110279;23;20188;-90
2021/03/20 02:39:46;;;;;;;3.73;2.40;;;;;;;;;;6146438;23;20216;-89
2021/03/20 02:42:55;;;;;;;3.87;2.10;;;;;;;;;;6145515;23;20211;-90
2021/03/20 02:46:04;;;;;;;3.67;2.50;;;;;;;;;;6146366;23;20165;-89
2021/03/20 02:49:14;;;;;;;3.10;2.37;;;;;;;;;;6146101;23;20252;-91
2021/03/20 02:52:21;;;;;;;3.00;2.20;;;;;;;;;;6145496;23;20196;-91
2021/03/20 02:55:27;;;;;;;4.40;2.60;;;;;;;;;;6144905;23;20211;-89
2021/03/20 02:58:33;;;;;;;3.87;2.40;;;;;;;;;;6145708;23;20200;-91
2021/03/20 03:01:40;;;;;;;4.00;2.50;;;;;;;;;;6145434;23;20200;-90
2021/03/20 03:04:47;;;;;;;5.00;2.27;;;;;;;;;;6146832;23;20243;-91
2021/03/20 03:07:53;;;;;;;4.73;2.50;;;;;;;;;;6146406;23;20168;-90
2021/03/20 03:10:59;;;;;;;5.70;2.60;;;;;;;;;;6146970;23;20237;-87
2021/03/20 03:14:08;;;;;;;5.87;2.93;;;;;;;;;;6146352;23;20168;-91
2021/03/20 03:17:15;;;;;;;3.60;2.20;;;;;;;;;;6146208;23;20165;-90
2021/03/20 03:20:22;;;;;;;5.60;2.70;;;;;;;;;;6146243;23;20168;-90
2021/03/20 03:23:28;;;;;;;4.07;2.67;;;;;;;;;;6147016;23;20172;-88
2021/03/20 03:26:34;;;;;;;4.30;2.60;;;;;;;;;;6144517;23;20228;-90
2021/03/20 03:29:39;;;;;;;4.07;2.70;;;;;;;;;;6146768;23;20173;-90
2021/03/20 03:32:46;;;;;;;5.10;2.73;;;;;;;;;;6145503;23;20167;-89
2021/03/20 03:35:53;;;;;;;4.57;2.87;;;;;;;;;;6145611;23;20168;-89
2021/03/20 03:39:09;;;;;;;5.13;2.87;;;;;;;;;;6145870;23;20191;-90
2021/03/20 03:42:13;;;;;;;4.07;2.53;;;;;;;;;;6145051;23;20237;-88
2021/03/20 03:45:19;;;;;;;3.77;2.57;;;;;;;;;;6145558;23;20274;-90
2021/03/20 03:48:24;;;;;;;4.90;3.00;;;;;;;;;;6146209;23;20866;-90
2021/03/20 03:51:30;;;;;;;9.33;2.70;;;;;;;;;;6144830;23;20169;-88
2021/03/20 03:54:35;;;;;;;5.53;3.07;;;;;;;;;;6146073;23;20168;-90
2021/03/20 03:57:54;;;;;;;5.07;2.90;;;;;;;;;;6144106;23;20953;-89
2021/03/20 04:01:02;;;;;;;4.67;2.90;;;;;;;;;;6145813;23;20172;-90
2021/03/20 04:04:15;;;;;;;5.27;3.03;;;;;;;;;;6145081;23;20232;-89
2021/03/20 04:07:30;;;;;;;6.57;3.10;;;;;;;;;;6144601;23;20176;-90
2021/03/20 04:10:38;;;;;;;4.83;2.80;;;;;;;;;;6161850;23;20582;-89
2021/03/20 04:13:45;;;;;;;9.17;2.97;;;;;;;;;;6144690;23;20162;-87
2021/03/20 04:16:51;;;;;;;5.90;3.13;;;;;;;;;;6144299;23;20525;-89
2021/03/20 04:19:59;;;;;;;11.97;3.47;;;;;;;;;;6145353;23;20193;-90
2021/03/20 04:23:07;;;;;;;5.30;3.00;;;;;;;;;;6145610;23;20192;-90
2021/03/20 04:26:14;;;;;;;10.70;3.10;;;;;;;;;;6144818;23;20218;-89
2021/03/20 04:29:25;;;;;;;9.27;3.73;;;;;;;;;;6145449;23;20175;-89
2021/03/20 04:32:37;;;;;;;6.47;3.00;;;;;;;;;;6144748;23;20241;-89
2021/03/20 04:35:46;;;;;;;7.23;3.60;;;;;;;;;;6144989;23;20168;-89
2021/03/20 04:38:53;;;;;;;9.80;3.27;;;;;;;;;;6145978;23;20232;-89
2021/03/20 04:41:58;;;;;;;10.20;3.60;;;;;;;;;;6143342;23;20172;-89
2021/03/20 04:45:05;;;;;;;7.87;3.57;;;;;;;;;;6144219;23;20192;-90
2021/03/20 04:48:14;;;;;;;4.93;3.10;;;;;;;;;;6144217;23;20184;-90
2021/03/20 04:51:29;;;;;;;5.50;3.10;;;;;;;;;;6145364;23;20167;-90
2021/03/20 04:54:35;;;;;;;6.37;3.03;;;;;;;;;;6146276;23;20173;-89
2021/03/20 04:57:41;;;;;;;4.10;2.67;;;;;;;;;;6145908;23;20241;-89
2021/03/20 05:01:03;;;;;;;6.67;3.80;;;;;;;;;;6145596;23;20177;-89
2021/03/20 05:04:10;;;;;;;13.60;3.97;;;;;;;;;;6147886;23;20196;-90
2021/03/20 05:07:15;;;;;;;6.60;3.37;;;;;;;;;;6164285;23;20249;-91
2021/03/20 05:10:23;;;;;;;8.53;3.97;;;;;;;;;;6163729;23;20200;-89
2021/03/20 05:13:49;;;;;;;5.67;3.07;;;;;;;;;;6146186;23;20173;-91
2021/03/20 05:16:55;;;;;;;6.30;3.20;;;;;;;;;;6145397;23;20172;-89
2021/03/20 05:20:00;;;;;;;7.67;3.80;;;;;;;;;;6146715;23;20191;-90
2021/03/20 05:23:04;;;;;;;8.60;3.87;;;;;;;;;;6147925;23;20189;-89
2021/03/20 05:26:09;;;;;;;6.80;3.83;;;;;;;;;;6147171;23;20276;-90
2021/03/20 05:29:14;;;;;;;7.10;4.07;;;;;;;;;;6146985;23;20193;-91
2021/03/20 05:32:23;;;;;;;7.47;4.00;;;;;;;;;;6146231;23;20177;-91
2021/03/20 05:35:28;;;;;;;11.97;4.57;;;;;;;;;;6147395;23;20172;-89
2021/03/20 05:38:33;;;;;;;9.67;4.27;;;;;;;;;;6147271;23;20505;-90
2021/03/20 05:41:42;;;;;;;7.60;3.93;;;;;;;;;;6164454;23;20164;-89
2021/03/20 05:44:50;;;;;;;8.50;3.53;;;;;;;;;;6146676;23;20168;-90
2021/03/20 05:48:02;;;;;;;7.67;4.07;;;;;;;;;;6146286;23;20196;-89
2021/03/20 05:51:19;;;;;;;11.90;3.77;;;;;;;;;;6145899;23;20172;-90
2021/03/20 05:54:33;;;;;;;9.70;4.03;;;;;;;;;;6146593;23;20193;-90
2021/03/20 05:57:42;;;;;;;7.60;3.90;;;;;;;;;;6146548;23;20223;-90
2021/03/20 06:00:56;;;;;;;10.83;4.10;;;;;;;;;;6146951;23;20220;-89
2021/03/20 06:04:06;;;;;;;6.80;3.47;;;;;;;;;;6147248;23;20169;-90
2021/03/20 06:07:17;;;;;;;6.57;3.27;;;;;;;;;;6146690;23;20176;-90
2021/03/20 06:10:28;;;;;;;5.90;3.23;;;;;;;;;;6145272;23;20191;-90
2021/03/20 06:13:56;;;;;;;10.63;3.70;;;;;;;;;;6146194;23;20520;-90
2021/03/20 06:17:09;;;;;;;9.17;4.00;;;;;;;;;;6088517;23;20215;-91
2021/03/20 06:20:22;;;;;;;9.00;4.27;;;;;;;;;;6145596;23;20284;-89
2021/03/20 06:23:40;;;;;;;11.57;3.83;;;;;;;;;;6145496;23;20176;-90
2021/03/20 06:26:45;;;;;;;7.83;4.30;;;;;;;;;;6146018;23;20196;-89
2021/03/20 06:29:55;;;;;;;6.63;3.63;;;;;;;;;;6146017;23;20167;-89
2021/03/20 06:33:03;;;;;;;8.33;3.83;;;;;;;;;;6147683;23;20189;-90
2021/03/20 06:36:10;;;;;;;6.63;3.93;;;;;;;;;;6147446;23;20188;-90
2021/03/20 06:39:18;;;;;;;8.67;3.93;;;;;;;;;;6146509;23;20172;-90
2021/03/20 06:42:25;;;;;;;11.07;4.53;;;;;;;;;;6145958;23;20284;-90
2021/03/20 06:45:30;;;;;;;7.73;4.63;;;;;;;;;;6145650;23;20173;-90
2021/03/20 06:48:36;;;;;;;18.23;5.17;;;;;;;;;;6147286;23;20172;-90
2021/03/20 06:51:40;;;;;;;10.67;4.83;;;;;;;;;;6148270;23;20225;-88
2021/03/20 06:54:45;;;;;;;10.87;5.10;;;;;;;;;;6146823;23;20197;-91
2021/03/20 06:57:49;;;;;;;9.57;3.87;;;;;;;;;;6147298;23;20173;-91
2021/03/20 07:00:54;;;;;;;10.13;4.73;;;;;;;;;;6146655;23;20181;-87
2021/03/20 07:04:17;;;;;;;15.17;5.10;;;;;;;;;;6147099;23;20173;-90
2021/03/20 07:07:36;;;;;;;11.17;4.53;;;;;;;;;;6147346;23;20197;-90
2021/03/20 07:10:44;;;;;;;9.20;5.30;;;;;;;;;;6146023;23;20211;-89
2021/03/20 07:13:51;;;;;;;10.27;5.30;;;;;;;;;;6147609;23;20168;-90
2021/03/20 07:16:57;;;;;;;12.50;5.13;;;;;;;;;;6130552;23;20172;-88
2021/03/20 07:20:02;;;;;;;9.40;4.53;;;;;;;;;;6146981;23;20196;-89
2021/03/20 07:23:12;;;;;;;14.20;4.87;;;;;;;;;;6147854;23;20629;-91
2021/03/20 07:26:16;;;;;;;9.83;5.27;;;;;;;;;;6146335;23;20168;-90
2021/03/20 07:29:22;;;;;;;34.73;8.67;;;;;;;;;;6145985;23;20176;-90
2021/03/20 07:32:34;;;;;;;9.37;4.60;;;;;;;;;;6146736;23;20505;-87
2021/03/20 07:35:39;;;;;;;20.03;9.53;;;;;;;;;;6146602;23;20655;-91
2021/03/20 07:38:45;;;;;;;10.80;5.00;;;;;;;;;;6146448;23;20220;-87
2021/03/20 07:41:54;;;;;;;9.87;5.27;;;;;;;;;;6146472;23;20212;-90
2021/03/20 07:45:00;;;;;;;12.87;5.83;;;;;;;;;;6148113;23;20169;-92
2021/03/20 07:48:06;;;;;;;15.67;6.00;;;;;;;;;;6145439;23;20175;-88
2021/03/20 07:51:12;;;;;;;9.63;5.53;;;;;;;;;;6146601;23;20564;-90
2021/03/20 07:54:29;;;;;;;7.77;4.10;;;;;;;;;;6146746;23;20192;-90
2021/03/20 07:57:34;;;;;;;9.80;3.10;;;;;;;;;;6148766;23;20177;-88
2021/03/20 08:00:44;;;;;;;10.60;5.10;;;;;;;;;;6147012;23;20177;-90
2021/03/20 08:03:51;;;;;;;9.97;4.67;;;;;;;;;;6148596;23;20173;-88
2021/03/20 08:06:55;;;;;;;9.63;4.77;;;;;;;;;;6146586;23;20169;-90
2021/03/20 08:10:21;;;;;;;9.30;5.10;;;;;;;;;;6146755;23;20235;-91
2021/03/20 08:13:29;;;;;;;6.93;4.63;;;;;;;;;;6146848;23;20188;-91
2021/03/20 08:16:34;;;;;;;10.47;5.50;;;;;;;;;;6145201;23;20172;-91
2021/03/20 08:19:38;;;;;;;11.27;5.63;;;;;;;;;;6146176;23;20173;-89
2021/03/20 08:22:48;;;;;;;10.10;4.30;;;;;;;;;;6146480;23;20192;-91
2021/03/20 08:25:56;;;;;;;11.17;4.33;;;;;;;;;;6149089;23;20173;-91
2021/03/20 08:29:06;;;;;;;10.10;5.17;;;;;;;;;;6150404;23;20172;-90
2021/03/20 08:32:17;;;;;;;8.03;4.13;;;;;;;;;;6148150;23;20223;-90
2021/03/20 08:35:28;;;;;;;10.83;4.50;;;;;;;;;;6150263;23;20254;-92
2021/03/20 08:38:41;;;;;;;7.67;3.30;;;;;;;;;;6147544;23;20177;-90
2021/03/20 08:41:53;;;;;;;6.87;3.70;;;;;;;;;;6146959;23;20216;-90
2021/03/20 08:45:04;;;;;;;12.63;4.00;;;;;;;;;;6148417;23;20169;-90
2021/03/20 08:48:20;;;;;;;9.67;4.23;;;;;;;;;;6149050;23;20172;-89
2021/03/20 08:51:31;;;;;;;6.37;3.83;;;;;;;;;;6148591;23;20220;-90
2021/03/20 08:54:46;;;;;;;14.30;4.70;;;;;;;;;;6151796;23;20204;-90
2021/03/20 08:57:56;;;;;;;9.17;4.30;;;;;;;;;;6153854;23;20173;-91
2021/03/20 09:01:03;;;;;;;8.40;4.27;;;;;;;;;;6150706;23;20229;-91
2021/03/20 09:04:09;;;;;;;11.13;4.20;;;;;;;;;;6149980;23;20181;-91
2021/03/20 09:07:21;;;;;;;8.53;3.90;;;;;;;;;;6150763;23;20168;-91
2021/03/20 09:10:28;;;;;;;8.17;4.03;;;;;;;;;;6152137;23;20196;-90
2021/03/20 09:13:38;;;;;;;11.17;5.00;;;;;;;;;;6149863;23;20168;-89
2021/03/20 09:16:46;;;;;;;9.23;4.50;;;;;;;;;;6148143;23;20220;-89
2021/03/20 09:19:53;;;;;;;10.90;4.67;;;;;;;;;;6148551;23;20193;-92
2021/03/20 09:22:58;;;;;;;7.20;4.50;;;;;;;;;;6148774;23;20220;-90
2021/03/20 09:26:06;;;;;;;8.23;4.57;;;;;;;;;;6148704;23;20474;-92
2021/03/20 09:29:16;;;;;;;10.70;4.70;;;;;;;;;;6152194;23;20256;-90
2021/03/20 09:32:21;;;;;;;9.93;4.53;;;;;;;;;;6149973;23;20620;-90
2021/03/20 09:35:28;;;;;;;9.43;4.47;;;;;;;;;;6148939;23;20289;-91
2021/03/20 09:38:48;;;;;;;7.50;4.50;;;;;;;;;;6151739;23;20196;-89
2021/03/20 09:41:52;;;;;;;6.90;4.33;;;;;;;;;;6151567;23;20177;-90
2021/03/20 09:44:58;;;;;;;9.02;4.38;;;;;;;;;;6131822;23;20169;-88
2021/03/20 09:48:03;;;;;;;8.32;4.40;;;;;;;;;;6147385;23;20280;-90
2021/03/20 09:51:23;;;;;;;9.03;4.43;;;;;;;;;;6147891;23;20161;-89
2021/03/20 09:54:43;;;;;;;10.60;4.60;;;;;;;;;;6149213;23;20191;-88
2021/03/20 09:57:52;;;;;;;8.13;4.20;;;;;;;;;;6149011;23;20500;-90
2021/03/20 10:01:15;;;;;;;11.53;4.27;;;;;;;;;;6151199;23;20175;-90
2021/03/20 10:04:27;;;;;;;6.40;3.50;;;;;;;;;;6149057;23;20173;-89
2021/03/20 10:07:35;;;;;;;9.07;3.70;;;;;;;;;;6148870;23;20168;-89
2021/03/20 10:10:50;;;;;;;9.50;3.77;;;;;;;;;;6149068;23;20679;-89
2021/03/20 10:13:55;;;;;;;7.67;4.13;;;;;;;;;;6147515;23;20216;-89
2021/03/20 10:17:06;;;;;;;6.63;3.37;;;;;;;;;;6148027;23;20219;-90
2021/03/20 10:20:17;;;;;;;9.37;4.80;;;;;;;;;;6146103;23;20188;-89
2021/03/20 10:23:27;;;;;;;8.47;3.83;;;;;;;;;;6146610;23;20172;-89
2021/03/20 10:26:34;;;;;;;7.70;4.17;;;;;;;;;;6147552;23;20169;-90
2021/03/20 10:29:39;;;;;;;7.03;3.63;;;;;;;;;;6149081;23;20189;-88
2021/03/20 10:32:56;;;;;;;6.87;3.40;;;;;;;;;;6148394;23;20215;-90
2021/03/20 10:36:09;;;;;;;6.47;3.50;;;;;;;;;;6147994;23;20244;-90
2021/03/20 10:39:21;;;;;;;6.13;3.47;;;;;;;;;;6147177;23;20172;-90
2021/03/20 10:42:28;;;;;;;6.20;3.30;;;;;;;;;;6147084;23;20176;-90
2021/03/20 10:45:37;;;;;;;4.50;2.70;;;;;;;;;;6148984;23;20164;-87
2021/03/20 10:48:42;;;;;;;13.97;3.60;;;;;;;;;;6148944;23;20176;-88
2021/03/20 10:51:49;;;;;;;8.30;3.77;;;;;;;;;;6150999;23;20172;-86
2021/03/20 10:54:55;;;;;;;7.03;3.23;;;;;;;;;;6147094;23;20501;-89
2021/03/20 10:58:00;;;;;;;9.67;4.27;;;;;;;;;;6145270;23;20198;-89
2021/03/20 11:01:05;;;;;;;10.57;4.80;;;;;;;;;;6147431;23;20200;-88
2021/03/20 11:04:14;;;;;;;10.40;4.50;;;;;;;;;;6146627;23;20261;-89
2021/03/20 11:07:22;;;;;;;11.30;5.27;;;;;;;;;;6148203;23;20211;-88
2021/03/20 11:10:29;;;;;;;17.23;5.13;;;;;;;;;;6147278;23;20284;-88
2021/03/20 11:13:34;;;;;;;12.90;6.30;;;;;;;;;;6147953;23;20168;-90
2021/03/20 11:16:44;;;;;;;9.13;4.17;;;;;;;;;;6148334;23;20236;-89
2021/03/20 11:19:51;;;;;;;10.27;4.20;;;;;;;;;;6145783;23;20172;-88
2021/03/20 11:22:56;;;;;;;10.40;4.53;;;;;;;;;;6148362;23;20676;-88
2021/03/20 11:26:10;;;;;;;8.23;4.10;;;;;;;;;;6147195;23;20199;-89
2021/03/20 11:29:17;;;;;;;8.17;4.10;;;;;;;;;;6147464;23;20173;-88
2021/03/20 11:32:24;;;;;;;10.40;4.17;;;;;;;;;;6147383;23;20221;-89
2021/03/20 11:35:30;;;;;;;11.73;4.20;;;;;;;;;;6146766;23;20255;-88
2021/03/20 11:38:35;;;;;;;7.07;3.80;;;;;;;;;;6129980;23;20181;-93
2021/03/20 11:41:42;;;;;;;9.03;4.23;;;;;;;;;;6148511;23;20184;-90
2021/03/20 11:44:48;;;;;;;8.50;4.40;;;;;;;;;;6149360;23;20228;-91
2021/03/20 11:47:54;;;;;;;8.60;3.90;;;;;;;;;;6149808;23;20653;-90
2021/03/20 11:51:01;;;;;;;9.23;4.17;;;;;;;;;;6147930;23;20176;-89
2021/03/20 11:54:08;;;;;;;9.80;4.65;;;;;;;;;;6148180;23;20172;-90
2021/03/20 11:57:22;;;;;;;8.40;4.18;;;;;;;;;;6148096;23;20192;-87
2021/03/20 12:00:35;;;;;;;9.32;3.72;;;;;;;;;;6148156;23;20551;-90
2021/03/20 12:03:40;;;;;;;9.70;3.97;;;;;;;;;;6148889;23;20672;-91
2021/03/20 12:06:44;;;;;;;8.13;4.45;;;;;;;;;;6147752;23;20212;-90
2021/03/20 12:09:51;;;;;;;11.70;4.70;;;;;;;;;;6146400;23;20192;-90
2021/03/20 12:12:56;;;;;;;9.50;4.37;;;;;;;;;;6146042;23;20205;-90
2021/03/20 12:16:01;;;;;;;11.43;3.80;;;;;;;;;;6146033;23;20245;-91
2021/03/20 12:19:11;;;;;;;8.80;3.90;;;;;;;;;;6145584;23;20173;-90
2021/03/20 12:22:16;;;;;;;8.17;3.63;;;;;;;;;;6148960;23;20168;-88
2021/03/20 12:25:23;;;;;;;13.20;4.10;;;;;;;;;;6147252;23;20173;-88
2021/03/20 12:28:33;;;;;;;12.97;4.30;;;;;;;;;;6146937;23;20604;-90
2021/03/20 12:31:38;;;;;;;8.10;4.00;;;;;;;;;;6146906;23;20177;-91
2021/03/20 12:34:43;;;;;;;7.57;3.60;;;;;;;;;;6146326;23;20246;-90
2021/03/20 12:37:49;;;;;;;6.13;3.10;;;;;;;;;;6147055;23;20249;-89
2021/03/20 12:40:56;;;;;;;7.67;3.63;;;;;;;;;;6146408;23;20184;-90
2021/03/20 12:44:05;;;;;;;5.23;3.10;;;;;;;;;;6144770;23;20171;-89
2021/03/20 12:47:13;;;;;;;5.67;3.13;;;;;;;;;;6145255;23;20316;-90
2021/03/20 12:50:17;;;;;;;15.20;5.77;;;;;;;;;;6149744;23;20173;-88
2021/03/20 12:53:24;;;;;;;7.27;3.00;;;;;;;;;;6146286;23;20228;-88
2021/03/20 12:56:30;;;;;;;7.77;4.10;;;;;;;;;;6146075;23;20219;-87
2021/03/20 12:59:35;;;;;;;7.50;3.90;;;;;;;;;;6146402;23;20168;-89
2021/03/20 13:02:39;;;;;;;9.20;4.00;;;;;;;;;;6148028;23;20172;-90
2021/03/20 13:05:43;;;;;;;11.17;4.00;;;;;;;;;;6146157;23;20181;-90
2021/03/20 13:08:47;;;;;;;11.73;4.53;;;;;;;;;;6145798;23;20172;-89
2021/03/20 13:11:52;;;;;;;9.70;4.03;;;;;;;;;;6147711;23;20211;-90
2021/03/20 13:14:57;;;;;;;9.07;4.03;;;;;;;;;;6145791;23;20213;-89
2021/03/20 13:18:02;;;;;;;7.90;4.40;;;;;;;;;;6146738;23;20212;-89
2021/03/20 13:21:06;;;;;;;8.23;3.60;;;;;;;;;;6146549;23;20173;-89
2021/03/20 13:24:11;;;;;;;7.20;3.90;;;;;;;;;;6146901;23;20176;-89
2021/03/20 13:27:17;;;;;;;11.20;4.00;;;;;;;;;;6147073;23;20192;-89
2021/03/20 13:30:24;;;;;;;93.90;28.40;;;;;;;;;;6147047;23;20557;-88
2021/03/20 13:33:29;;;;;;;15.27;5.43;;;;;;;;;;6168259;23;20173;-90
2021/03/20 13:36:34;;;;;;;7.47;3.90;;;;;;;;;;6146010;23;20197;-90
2021/03/20 13:39:38;;;;;;;7.23;3.57;;;;;;;;;;6148851;23;20507;-90
2021/03/20 13:42:44;;;;;;;6.30;3.70;;;;;;;;;;6148099;23;20177;-89
2021/03/20 13:45:48;;;;;;;6.47;3.80;;;;;;;;;;6148199;23;20196;-90
2021/03/20 13:48:53;;;;;;;7.97;3.97;;;;;;;;;;6147775;23;20224;-90
2021/03/20 13:51:59;;;;;;;6.47;4.00;;;;;;;;;;6147546;23;20215;-91
2021/03/20 13:55:05;;;;;;;7.93;4.00;;;;;;;;;;6148197;23;20193;-90
2021/03/20 13:58:12;;;;;;;5.63;2.93;;;;;;;;;;6146483;23;20260;-90
2021/03/20 14:01:17;;;;;;;7.57;3.70;;;;;;;;;;6150812;23;20173;-90
2021/03/20 14:04:22;;;;;;;5.30;3.23;;;;;;;;;;6152635;23;20230;-89
2021/03/20 14:07:29;;;;;;;7.87;4.33;;;;;;;;;;6150402;23;20177;-87
2021/03/20 14:10:35;;;;;;;6.23;3.30;;;;;;;;;;6154587;23;20207;-90
2021/03/20 14:13:41;;;;;;;6.27;3.70;;;;;;;;;;6151929;23;20248;-89
2021/03/20 14:16:46;;;;;;;5.87;3.50;;;;;;;;;;6151989;23;20169;-89
2021/03/20 14:19:57;;;;;;;5.80;3.43;;;;;;;;;;6150150;23;20167;-91
2021/03/20 14:23:03;;;;;;;8.07;3.17;;;;;;;;;;6133850;23;20173;-89
2021/03/20 14:26:08;;;;;;;7.13;3.20;;;;;;;;;;6150816;23;20168;-89
2021/03/20 14:29:13;;;;;;;7.30;3.40;;;;;;;;;;6151006;23;20283;-89
2021/03/20 14:32:18;;;;;;;7.10;3.30;;;;;;;;;;6149612;23;20177;-89
2021/03/20 14:35:22;;;;;;;11.20;3.40;;;;;;;;;;6149368;23;20195;-89
2021/03/20 14:38:28;;;;;;;5.40;2.60;;;;;;;;;;6150779;23;20252;-90
2021/03/20 14:41:33;;;;;;;6.10;2.90;;;;;;;;;;6150164;23;20185;-89
2021/03/20 14:44:38;;;;;;;5.57;2.90;;;;;;;;;;6149936;23;20172;-89
2021/03/20 14:47:42;;;;;;;6.43;2.97;;;;;;;;;;6150767;23;20221;-89
2021/03/20 14:50:48;;;;;;;4.07;2.67;;;;;;;;;;6150508;23;20197;-90
2021/03/20 14:53:53;;;;;;;5.97;3.17;;;;;;;;;;6150698;23;20617;-89
2021/03/20 14:56:57;;;;;;;5.50;2.87;;;;;;;;;;6149880;23;20169;-89
2021/03/20 15:00:05;;;;;;;7.77;3.10;;;;;;;;;;6151000;23;20181;-88
2021/03/20 15:03:10;;;;;;;11.70;4.37;;;;;;;;;;6150719;23;20172;-88
2021/03/20 15:06:14;;;;;;;3.50;1.90;;;;;;;;;;6148666;23;20229;-87
2021/03/20 15:09:19;;;;;;;6.67;2.90;;;;;;;;;;6150455;23;20164;-89
2021/03/20 15:12:24;;;;;;;5.73;2.70;;;;;;;;;;6150306;23;20226;-90
2021/03/20 15:15:29;;;;;;;8.70;2.63;;;;;;;;;;6149959;23;20191;-89
2021/03/20 15:18:35;;;;;;;4.83;2.37;;;;;;;;;;6151763;23;20175;-89
2021/03/20 15:21:40;;;;;;;8.70;3.20;;;;;;;;;;6149922;23;20180;-89
2021/03/20 15:24:44;;;;;;;6.77;3.23;;;;;;;;;;6152084;23;20668;-90
2021/03/20 15:27:49;;;;;;;8.93;3.40;;;;;;;;;;6151731;23;20235;-91
2021/03/20 19:54:41;;;;;;;8.33;3.70;;;;;;;;;;6171631;22;20212;-89
2021/03/20 19:57:46;;;;;;;10.83;3.97;;;;;;;;;;6229961;23;20186;-89
2021/03/20 20:00:52;;;;;;;8.60;3.87;;;;;;;;;;6229053;23;20236;-90
2021/03/20 20:03:56;;;;;;;9.47;3.63;;;;;;;;;;6224751;23;20198;-90
2021/03/20 20:07:01;;;;;;;8.67;3.60;;;;;;;;;;6225787;23;20166;-90
2021/03/20 20:10:09;;;;;;;9.13;3.63;;;;;;;;;;6226072;23;20219;-90
2021/03/20 20:13:13;;;;;;;8.40;3.80;;;;;;;;;;6224399;23;20171;-89
2021/03/20 20:16:18;;;;;;;9.57;3.97;;;;;;;;;;6223293;23;20662;-89
2021/03/20 20:19:29;;;;;;;8.93;4.03;;;;;;;;;;6225020;22;20154;-90
2021/03/20 20:22:34;;;;;;;13.37;4.50;;;;;;;;;;6225797;22;20222;-89
2021/03/20 20:25:40;;;;;;;11.27;4.33;;;;;;;;;;6224523;23;20210;-89
2021/03/20 20:28:45;;;;;;;7.00;3.50;;;;;;;;;;6225605;23;20186;-91
2021/03/20 20:31:50;;;;;;;17.03;4.87;;;;;;;;;;6225839;23;20188;-90
2021/03/20 20:34:55;;;;;;;7.43;3.77;;;;;;;;;;6209123;22;20211;-89
2021/03/20 20:38:00;;;;;;;7.73;3.40;;;;;;;;;;6226174;23;20194;-90
2021/03/20 20:41:05;;;;;;;7.83;4.00;;;;;;;;;;6225532;23;20209;-88
2021/03/20 20:44:12;;;;;;;9.83;4.53;;;;;;;;;;6226321;23;20170;-89
2021/03/20 20:47:17;;;;;;;8.87;4.30;;;;;;;;;;6224476;23;20170;-89
2021/03/20 20:50:26;;;;;;;12.03;4.73;;;;;;;;;;6228357;23;20163;-87
2021/03/20 20:53:31;;;;;;;8.13;4.10;;;;;;;;;;6229359;22;20487;-90
2021/03/20 20:56:36;;;;;;;10.90;4.20;;;;;;;;;;6231493;23;20248;-89
2021/03/20 20:59:41;;;;;;;18.47;7.30;;;;;;;;;;6230269;22;20219;-89
2021/03/20 21:02:48;;;;;;;20.83;8.53;;;;;;;;;;6211012;23;20199;-89
2021/03/20 21:05:53;;;;;;;60.90;18.57;;;;;;;;;;6227044;23;20635;-89
2021/03/20 21:08:58;;;;;;;47.53;14.20;;;;;;;;;;6209130;23;20172;-89
2021/03/20 21:12:04;;;;;;;20.93;8.57;;;;;;;;;;6224938;23;20170;-87
2021/03/20 21:15:10;;;;;;;13.17;5.57;;;;;;;;;;6207478;23;20194;-88
2021/03/20 21:18:14;;;;;;;12.10;4.23;;;;;;;;;;6190353;23;20186;-89
2021/03/20 21:21:19;;;;;;;9.90;4.73;;;;;;;;;;6207128;23;20171;-89
2021/03/20 21:24:23;;;;;;;11.30;4.93;;;;;;;;;;6225011;23;20156;-88
2021/03/20 21:27:28;;;;;;;10.53;5.03;;;;;;;;;;6207849;23;20167;-87
2021/03/20 21:30:33;;;;;;;9.93;4.73;;;;;;;;;;6224913;23;20239;-89
2021/03/20 21:33:38;;;;;;;11.50;4.40;;;;;;;;;;6208305;23;20171;-89
2021/03/20 21:36:42;;;;;;;14.07;5.30;;;;;;;;;;6207250;23;20194;-90
2021/03/20 21:39:47;;;;;;;18.63;7.20;;;;;;;;;;6208704;23;20199;-88
2021/03/20 21:42:52;;;;;;;10.83;5.30;;;;;;;;;;6225979;23;20223;-90
2021/03/20 21:45:56;;;;;;;15.77;5.37;;;;;;;;;;6208239;23;20244;-88
2021/03/20 21:49:01;;;;;;;21.10;7.47;;;;;;;;;;6224834;22;20623;-88
2021/03/20 21:52:06;;;;;;;24.03;8.80;;;;;;;;;;6207401;23;20167;-89
2021/03/20 21:55:16;;;;;;;12.63;5.57;;;;;;;;;;6207144;23;20248;-85
2021/03/20 21:58:21;;;;;;;15.40;5.80;;;;;;;;;;6224584;23;20192;-88
2021/03/20 22:01:26;;;;;;;16.03;5.23;;;;;;;;;;6224748;23;20279;-88
2021/03/20 22:04:30;;;;;;;13.77;5.67;;;;;;;;;;6225726;22;20167;-88
2021/03/20 22:07:34;;;;;;;15.93;6.20;;;;;;;;;;6225173;22;20171;-87
2021/03/20 22:10:41;;;;;;;18.40;7.07;;;;;;;;;;6223230;23;20171;-89
2021/03/20 22:13:47;;;;;;;12.37;5.63;;;;;;;;;;6223964;23;20217;-88
2021/03/20 22:16:51;;;;;;;15.23;6.33;;;;;;;;;;6224188;23;20210;-88
2021/03/20 22:19:55;;;;;;;14.63;6.30;;;;;;;;;;6224235;23;20174;-88
2021/03/20 22:23:01;;;;;;;17.40;7.03;;;;;;;;;;6224444;23;20258;-87
2021/03/20 22:26:05;;;;;;;12.20;5.90;;;;;;;;;;6222537;23;20282;-87
2021/03/20 22:29:11;;;;;;;15.07;6.57;;;;;;;;;;6223153;22;20155;-88
2021/03/20 22:32:15;;;;;;;17.40;6.03;;;;;;;;;;6225087;23;20159;-88
2021/03/20 22:35:20;;;;;;;14.83;6.17;;;;;;;;;;6224886;22;20210;-89
2021/03/20 22:38:25;;;;;;;11.33;5.00;;;;;;;;;;6225000;22;20596;-89
2021/03/20 22:41:30;;;;;;;15.13;5.20;;;;;;;;;;6224462;23;20175;-89
2021/03/20 22:44:35;;;;;;;10.87;4.97;;;;;;;;;;6224070;23;20218;-88
2021/03/20 22:47:39;;;;;;;16.37;4.97;;;;;;;;;;6223748;23;20166;-88
2021/03/20 22:50:45;;;;;;;18.53;6.27;;;;;;;;;;6223856;23;20226;-88
2021/03/20 22:53:49;;;;;;;12.97;4.90;;;;;;;;;;6224660;23;20167;-87
2021/03/20 22:56:54;;;;;;;10.40;4.53;;;;;;;;;;6224087;22;20218;-90
2021/03/20 22:59:59;;;;;;;12.30;4.50;;;;;;;;;;6221818;23;20167;-88